sensor_id;sensor_type;location;lat;lon;timestamp;P1;durP1;ratioP1;P2;durP2;ratioP2
80272;SDS011;69574;45.328;9.598;2024-02-26T00:04:21;14.03;;;9.40;;
80272;SDS011;69574;45.328;9.598;2024-02-26T00:06:47;15.23;;;10.05;;
80272;SDS011;69574;45.328;9.598;2024-02-26T00:09:15;16.38;;;10.43;;
80272;SDS011;69574;45.328;9.598;2024-02-26T00:11:41;15.55;;;10.75;;
80272;SDS011;69574;45.328;9.598;2024-02-26T00:14:06;17.08;;;11.25;;
80272;SDS011;69574;45.328;9.598;2024-02-26T00:16:34;15.23;;;11.05;;
80272;SDS011;69574;45.328;9.598;2024-02-26T00:21:24;16.73;;;10.27;;
80272;SDS011;69574;45.328;9.598;2024-02-26T00:23:50;15.65;;;11.90;;
80272;SDS011;69574;45.328;9.598;2024-02-26T00:26:16;15.55;;;11.50;;
80272;SDS011;69574;45.328;9.598;2024-02-26T00:28:42;17.48;;;12.15;;
80272;SDS011;69574;45.328;9.598;2024-02-26T00:31:08;18.25;;;11.90;;
80272;SDS011;69574;45.328;9.598;2024-02-26T00:33:35;15.77;;;11.20;;
80272;SDS011;69574;45.328;9.598;2024-02-26T00:36:01;14.75;;;11.02;;
80272;SDS011;69574;45.328;9.598;2024-02-26T00:38:26;15.20;;;10.35;;
80272;SDS011;69574;45.328;9.598;2024-02-26T00:40:52;16.70;;;11.23;;
80272;SDS011;69574;45.328;9.598;2024-02-26T00:43:18;17.75;;;10.57;;
80272;SDS011;69574;45.328;9.598;2024-02-26T00:45:43;16.17;;;11.00;;
80272;SDS011;69574;45.328;9.598;2024-02-26T00:48:09;13.75;;;10.23;;
80272;SDS011;69574;45.328;9.598;2024-02-26T00:53:03;14.17;;;9.43;;
80272;SDS011;69574;45.328;9.598;2024-02-26T00:55:28;14.63;;;9.73;;
80272;SDS011;69574;45.328;9.598;2024-02-26T00:57:54;13.25;;;10.27;;
80272;SDS011;69574;45.328;9.598;2024-02-26T01:00:20;15.90;;;10.10;;
80272;SDS011;69574;45.328;9.598;2024-02-26T01:02:46;14.88;;;10.48;;
80272;SDS011;69574;45.328;9.598;2024-02-26T01:05:14;13.20;;;9.60;;
80272;SDS011;69574;45.328;9.598;2024-02-26T01:07:41;12.93;;;9.55;;
80272;SDS011;69574;45.328;9.598;2024-02-26T01:10:09;13.75;;;9.52;;
80272;SDS011;69574;45.328;9.598;2024-02-26T01:12:35;15.35;;;9.23;;
80272;SDS011;69574;45.328;9.598;2024-02-26T01:15:00;12.63;;;9.23;;
80272;SDS011;69574;45.328;9.598;2024-02-26T01:17:26;14.48;;;9.75;;
80272;SDS011;69574;45.328;9.598;2024-02-26T01:19:52;14.73;;;8.88;;
80272;SDS011;69574;45.328;9.598;2024-02-26T01:22:19;12.48;;;8.52;;
80272;SDS011;69574;45.328;9.598;2024-02-26T01:24:44;12.15;;;8.52;;
80272;SDS011;69574;45.328;9.598;2024-02-26T01:27:11;13.75;;;8.55;;
80272;SDS011;69574;45.328;9.598;2024-02-26T01:29:37;11.32;;;7.68;;
80272;SDS011;69574;45.328;9.598;2024-02-26T01:32:03;11.65;;;9.23;;
80272;SDS011;69574;45.328;9.598;2024-02-26T01:34:31;12.80;;;8.70;;
80272;SDS011;69574;45.328;9.598;2024-02-26T01:36:56;11.93;;;8.57;;
80272;SDS011;69574;45.328;9.598;2024-02-26T01:39:22;13.73;;;9.38;;
80272;SDS011;69574;45.328;9.598;2024-02-26T01:41:48;12.90;;;8.13;;
80272;SDS011;69574;45.328;9.598;2024-02-26T01:44:15;13.80;;;8.60;;
80272;SDS011;69574;45.328;9.598;2024-02-26T01:46:41;11.45;;;8.60;;
80272;SDS011;69574;45.328;9.598;2024-02-26T01:49:07;17.40;;;8.93;;
80272;SDS011;69574;45.328;9.598;2024-02-26T01:51:34;13.18;;;8.60;;
80272;SDS011;69574;45.328;9.598;2024-02-26T01:54:00;12.52;;;8.60;;
80272;SDS011;69574;45.328;9.598;2024-02-26T01:56:27;13.23;;;8.50;;
80272;SDS011;69574;45.328;9.598;2024-02-26T01:58:55;11.88;;;8.38;;
80272;SDS011;69574;45.328;9.598;2024-02-26T02:01:23;15.05;;;9.38;;
80272;SDS011;69574;45.328;9.598;2024-02-26T02:03:50;14.55;;;8.98;;
80272;SDS011;69574;45.328;9.598;2024-02-26T02:06:16;13.70;;;8.65;;
80272;SDS011;69574;45.328;9.598;2024-02-26T02:08:42;12.45;;;8.20;;
80272;SDS011;69574;45.328;9.598;2024-02-26T02:11:08;12.50;;;7.90;;
80272;SDS011;69574;45.328;9.598;2024-02-26T02:13:36;10.98;;;7.97;;
80272;SDS011;69574;45.328;9.598;2024-02-26T02:16:02;10.68;;;8.20;;
80272;SDS011;69574;45.328;9.598;2024-02-26T02:18:29;14.50;;;7.95;;
80272;SDS011;69574;45.328;9.598;2024-02-26T02:20:56;11.23;;;7.78;;
80272;SDS011;69574;45.328;9.598;2024-02-26T02:23:24;12.00;;;8.15;;
80272;SDS011;69574;45.328;9.598;2024-02-26T02:25:50;13.85;;;9.13;;
80272;SDS011;69574;45.328;9.598;2024-02-26T02:28:16;13.23;;;8.40;;
80272;SDS011;69574;45.328;9.598;2024-02-26T02:30:42;12.95;;;8.35;;
80272;SDS011;69574;45.328;9.598;2024-02-26T02:33:08;12.18;;;7.55;;
80272;SDS011;69574;45.328;9.598;2024-02-26T02:35:33;11.10;;;8.10;;
80272;SDS011;69574;45.328;9.598;2024-02-26T02:38:01;13.30;;;8.10;;
80272;SDS011;69574;45.328;9.598;2024-02-26T02:40:26;11.27;;;8.05;;
80272;SDS011;69574;45.328;9.598;2024-02-26T02:42:52;13.45;;;9.05;;
80272;SDS011;69574;45.328;9.598;2024-02-26T02:45:17;11.82;;;8.90;;
80272;SDS011;69574;45.328;9.598;2024-02-26T02:47:43;12.65;;;8.48;;
80272;SDS011;69574;45.328;9.598;2024-02-26T02:50:09;13.70;;;8.70;;
80272;SDS011;69574;45.328;9.598;2024-02-26T02:52:35;12.13;;;8.40;;
80272;SDS011;69574;45.328;9.598;2024-02-26T02:55:02;13.45;;;8.50;;
80272;SDS011;69574;45.328;9.598;2024-02-26T02:57:27;11.43;;;8.07;;
80272;SDS011;69574;45.328;9.598;2024-02-26T02:59:53;11.23;;;7.53;;
80272;SDS011;69574;45.328;9.598;2024-02-26T03:02:19;13.77;;;8.70;;
80272;SDS011;69574;45.328;9.598;2024-02-26T03:04:44;13.80;;;8.68;;
80272;SDS011;69574;45.328;9.598;2024-02-26T03:07:10;14.23;;;8.75;;
80272;SDS011;69574;45.328;9.598;2024-02-26T03:09:36;16.38;;;9.18;;
80272;SDS011;69574;45.328;9.598;2024-02-26T03:12:03;14.65;;;8.90;;
80272;SDS011;69574;45.328;9.598;2024-02-26T03:14:28;15.95;;;10.05;;
80272;SDS011;69574;45.328;9.598;2024-02-26T03:16:54;13.90;;;9.23;;
80272;SDS011;69574;45.328;9.598;2024-02-26T03:19:20;11.35;;;8.32;;
80272;SDS011;69574;45.328;9.598;2024-02-26T03:21:46;12.48;;;8.38;;
80272;SDS011;69574;45.328;9.598;2024-02-26T03:24:11;14.80;;;8.80;;
80272;SDS011;69574;45.328;9.598;2024-02-26T03:26:37;13.15;;;8.38;;
80272;SDS011;69574;45.328;9.598;2024-02-26T03:29:04;12.93;;;8.70;;
80272;SDS011;69574;45.328;9.598;2024-02-26T03:31:30;13.57;;;9.18;;
80272;SDS011;69574;45.328;9.598;2024-02-26T03:33:56;12.55;;;8.52;;
80272;SDS011;69574;45.328;9.598;2024-02-26T03:36:21;12.10;;;8.23;;
80272;SDS011;69574;45.328;9.598;2024-02-26T03:38:47;11.02;;;7.20;;
80272;SDS011;69574;45.328;9.598;2024-02-26T03:41:12;11.80;;;7.60;;
80272;SDS011;69574;45.328;9.598;2024-02-26T03:43:38;12.95;;;7.50;;
80272;SDS011;69574;45.328;9.598;2024-02-26T03:46:05;11.70;;;8.13;;
80272;SDS011;69574;45.328;9.598;2024-02-26T03:48:32;10.90;;;7.57;;
80272;SDS011;69574;45.328;9.598;2024-02-26T03:50:57;11.02;;;6.90;;
80272;SDS011;69574;45.328;9.598;2024-02-26T03:53:23;11.40;;;6.90;;
80272;SDS011;69574;45.328;9.598;2024-02-26T03:55:49;10.25;;;6.85;;
80272;SDS011;69574;45.328;9.598;2024-02-26T03:58:17;11.00;;;6.80;;
80272;SDS011;69574;45.328;9.598;2024-02-26T04:00:42;9.40;;;6.35;;
80272;SDS011;69574;45.328;9.598;2024-02-26T04:03:09;9.75;;;6.50;;
80272;SDS011;69574;45.328;9.598;2024-02-26T04:05:35;12.73;;;6.85;;
80272;SDS011;69574;45.328;9.598;2024-02-26T04:08:00;9.38;;;6.50;;
80272;SDS011;69574;45.328;9.598;2024-02-26T04:10:26;11.63;;;7.03;;
80272;SDS011;69574;45.328;9.598;2024-02-26T04:12:52;10.95;;;6.80;;
80272;SDS011;69574;45.328;9.598;2024-02-26T04:15:17;9.32;;;6.65;;
80272;SDS011;69574;45.328;9.598;2024-02-26T04:17:43;9.20;;;6.82;;
80272;SDS011;69574;45.328;9.598;2024-02-26T04:20:12;13.90;;;7.50;;
80272;SDS011;69574;45.328;9.598;2024-02-26T04:22:38;11.13;;;7.00;;
80272;SDS011;69574;45.328;9.598;2024-02-26T04:25:04;10.77;;;7.25;;
80272;SDS011;69574;45.328;9.598;2024-02-26T04:27:29;12.05;;;8.20;;
80272;SDS011;69574;45.328;9.598;2024-02-26T04:29:55;11.98;;;7.65;;
80272;SDS011;69574;45.328;9.598;2024-02-26T04:32:20;9.68;;;6.45;;
80272;SDS011;69574;45.328;9.598;2024-02-26T04:34:46;11.18;;;7.45;;
80272;SDS011;69574;45.328;9.598;2024-02-26T04:37:13;12.95;;;7.85;;
80272;SDS011;69574;45.328;9.598;2024-02-26T04:42:04;10.80;;;6.93;;
80272;SDS011;69574;45.328;9.598;2024-02-26T04:44:29;11.55;;;7.20;;
80272;SDS011;69574;45.328;9.598;2024-02-26T04:46:55;12.25;;;7.78;;
80272;SDS011;69574;45.328;9.598;2024-02-26T04:49:21;12.00;;;7.82;;
80272;SDS011;69574;45.328;9.598;2024-02-26T04:51:47;11.65;;;7.13;;
80272;SDS011;69574;45.328;9.598;2024-02-26T04:54:15;12.48;;;7.75;;
80272;SDS011;69574;45.328;9.598;2024-02-26T04:59:05;12.43;;;7.20;;
80272;SDS011;69574;45.328;9.598;2024-02-26T05:01:31;12.38;;;7.85;;
80272;SDS011;69574;45.328;9.598;2024-02-26T05:03:56;12.05;;;7.93;;
80272;SDS011;69574;45.328;9.598;2024-02-26T05:06:22;13.90;;;9.25;;
80272;SDS011;69574;45.328;9.598;2024-02-26T05:08:48;13.27;;;8.00;;
80272;SDS011;69574;45.328;9.598;2024-02-26T05:11:15;17.10;;;8.93;;
80272;SDS011;69574;45.328;9.598;2024-02-26T05:13:40;13.85;;;8.43;;
80272;SDS011;69574;45.328;9.598;2024-02-26T05:16:06;12.80;;;8.63;;
80272;SDS011;69574;45.328;9.598;2024-02-26T05:18:32;14.55;;;8.30;;
80272;SDS011;69574;45.328;9.598;2024-02-26T05:20:57;11.25;;;7.97;;
80272;SDS011;69574;45.328;9.598;2024-02-26T05:23:23;12.10;;;7.53;;
80272;SDS011;69574;45.328;9.598;2024-02-26T05:25:48;12.80;;;7.20;;
80272;SDS011;69574;45.328;9.598;2024-02-26T05:28:15;11.63;;;7.40;;
80272;SDS011;69574;45.328;9.598;2024-02-26T05:30:41;12.10;;;7.32;;
80272;SDS011;69574;45.328;9.598;2024-02-26T05:33:07;10.85;;;7.55;;
80272;SDS011;69574;45.328;9.598;2024-02-26T05:35:32;11.35;;;7.28;;
80272;SDS011;69574;45.328;9.598;2024-02-26T05:37:58;11.20;;;6.80;;
80272;SDS011;69574;45.328;9.598;2024-02-26T05:40:23;11.60;;;7.18;;
80272;SDS011;69574;45.328;9.598;2024-02-26T05:42:49;10.35;;;6.80;;
80272;SDS011;69574;45.328;9.598;2024-02-26T05:45:16;9.75;;;6.30;;
80272;SDS011;69574;45.328;9.598;2024-02-26T05:47:42;9.80;;;6.35;;
80272;SDS011;69574;45.328;9.598;2024-02-26T05:50:08;10.80;;;5.88;;
80272;SDS011;69574;45.328;9.598;2024-02-26T05:52:36;11.75;;;6.50;;
80272;SDS011;69574;45.328;9.598;2024-02-26T05:55:01;9.48;;;6.35;;
80272;SDS011;69574;45.328;9.598;2024-02-26T05:57:27;10.10;;;6.18;;
80272;SDS011;69574;45.328;9.598;2024-02-26T05:59:53;10.07;;;6.03;;
80272;SDS011;69574;45.328;9.598;2024-02-26T06:02:20;9.38;;;5.93;;
80272;SDS011;69574;45.328;9.598;2024-02-26T06:04:45;9.20;;;5.80;;
80272;SDS011;69574;45.328;9.598;2024-02-26T06:07:12;9.20;;;5.60;;
80272;SDS011;69574;45.328;9.598;2024-02-26T06:09:37;10.57;;;5.88;;
80272;SDS011;69574;45.328;9.598;2024-02-26T06:12:03;10.02;;;5.90;;
80272;SDS011;69574;45.328;9.598;2024-02-26T06:14:29;9.80;;;6.25;;
80272;SDS011;69574;45.328;9.598;2024-02-26T06:16:55;10.30;;;6.28;;
80272;SDS011;69574;45.328;9.598;2024-02-26T06:19:22;9.82;;;5.68;;
80272;SDS011;69574;45.328;9.598;2024-02-26T06:21:47;10.85;;;5.85;;
80272;SDS011;69574;45.328;9.598;2024-02-26T06:24:13;10.68;;;6.22;;
80272;SDS011;69574;45.328;9.598;2024-02-26T06:26:38;9.82;;;6.20;;
80272;SDS011;69574;45.328;9.598;2024-02-26T06:29:04;9.73;;;5.65;;
80272;SDS011;69574;45.328;9.598;2024-02-26T06:31:29;9.48;;;5.43;;
80272;SDS011;69574;45.328;9.598;2024-02-26T06:33:55;10.15;;;6.03;;
80272;SDS011;69574;45.328;9.598;2024-02-26T06:36:23;10.15;;;6.20;;
80272;SDS011;69574;45.328;9.598;2024-02-26T06:38:48;9.57;;;6.03;;
80272;SDS011;69574;45.328;9.598;2024-02-26T06:41:14;11.40;;;6.60;;
80272;SDS011;69574;45.328;9.598;2024-02-26T06:43:40;12.70;;;7.22;;
80272;SDS011;69574;45.328;9.598;2024-02-26T06:46:05;10.68;;;6.47;;
80272;SDS011;69574;45.328;9.598;2024-02-26T06:48:31;11.05;;;6.88;;
80272;SDS011;69574;45.328;9.598;2024-02-26T06:50:57;10.35;;;6.22;;
80272;SDS011;69574;45.328;9.598;2024-02-26T06:53:24;10.80;;;6.32;;
80272;SDS011;69574;45.328;9.598;2024-02-26T06:55:50;10.30;;;6.22;;
80272;SDS011;69574;45.328;9.598;2024-02-26T06:58:16;9.63;;;6.55;;
80272;SDS011;69574;45.328;9.598;2024-02-26T07:00:41;10.15;;;6.40;;
80272;SDS011;69574;45.328;9.598;2024-02-26T07:03:07;11.88;;;6.32;;
80272;SDS011;69574;45.328;9.598;2024-02-26T07:05:32;11.88;;;6.78;;
80272;SDS011;69574;45.328;9.598;2024-02-26T07:07:58;9.70;;;6.53;;
80272;SDS011;69574;45.328;9.598;2024-02-26T07:10:25;15.65;;;12.77;;
80272;SDS011;69574;45.328;9.598;2024-02-26T07:15:16;11.57;;;6.73;;
80272;SDS011;69574;45.328;9.598;2024-02-26T07:17:42;11.63;;;6.38;;
80272;SDS011;69574;45.328;9.598;2024-02-26T07:20:12;10.85;;;6.40;;
80272;SDS011;69574;45.328;9.598;2024-02-26T07:22:38;13.70;;;7.05;;
80272;SDS011;69574;45.328;9.598;2024-02-26T07:25:03;10.55;;;7.20;;
80272;SDS011;69574;45.328;9.598;2024-02-26T07:27:31;11.00;;;7.65;;
80272;SDS011;69574;45.328;9.598;2024-02-26T07:32:21;10.43;;;5.97;;
80272;SDS011;69574;45.328;9.598;2024-02-26T07:34:47;9.80;;;5.70;;
80272;SDS011;69574;45.328;9.598;2024-02-26T07:37:13;10.40;;;6.07;;
80272;SDS011;69574;45.328;9.598;2024-02-26T07:39:38;9.02;;;5.63;;
80272;SDS011;69574;45.328;9.598;2024-02-26T07:42:04;9.57;;;5.80;;
80272;SDS011;69574;45.328;9.598;2024-02-26T07:44:32;9.23;;;5.07;;
80272;SDS011;69574;45.328;9.598;2024-02-26T07:46:58;10.55;;;5.35;;
80272;SDS011;69574;45.328;9.598;2024-02-26T07:49:23;8.50;;;5.40;;
80272;SDS011;69574;45.328;9.598;2024-02-26T07:51:49;8.18;;;5.03;;
80272;SDS011;69574;45.328;9.598;2024-02-26T07:54:14;8.45;;;4.65;;
80272;SDS011;69574;45.328;9.598;2024-02-26T07:56:41;8.27;;;4.78;;
80272;SDS011;69574;45.328;9.598;2024-02-26T07:59:07;9.38;;;5.25;;
80272;SDS011;69574;45.328;9.598;2024-02-26T08:01:34;9.43;;;5.10;;
80272;SDS011;69574;45.328;9.598;2024-02-26T08:03:59;8.05;;;4.75;;
80272;SDS011;69574;45.328;9.598;2024-02-26T08:06:25;8.82;;;4.72;;
80272;SDS011;69574;45.328;9.598;2024-02-26T08:08:51;6.97;;;4.78;;
80272;SDS011;69574;45.328;9.598;2024-02-26T08:11:16;8.00;;;5.18;;
80272;SDS011;69574;45.328;9.598;2024-02-26T08:13:42;9.35;;;4.72;;
80272;SDS011;69574;45.328;9.598;2024-02-26T08:16:07;7.47;;;4.80;;
80272;SDS011;69574;45.328;9.598;2024-02-26T08:18:34;10.13;;;5.15;;
80272;SDS011;69574;45.328;9.598;2024-02-26T08:21:00;8.82;;;4.72;;
80272;SDS011;69574;45.328;9.598;2024-02-26T08:23:25;7.97;;;4.53;;
80272;SDS011;69574;45.328;9.598;2024-02-26T08:25:51;8.85;;;4.93;;
80272;SDS011;69574;45.328;9.598;2024-02-26T08:28:17;7.45;;;4.82;;
80272;SDS011;69574;45.328;9.598;2024-02-26T08:30:43;8.77;;;5.38;;
80272;SDS011;69574;45.328;9.598;2024-02-26T08:33:08;22.35;;;6.57;;
80272;SDS011;69574;45.328;9.598;2024-02-26T08:35:36;13.32;;;5.63;;
80272;SDS011;69574;45.328;9.598;2024-02-26T08:40:28;9.45;;;5.40;;
80272;SDS011;69574;45.328;9.598;2024-02-26T08:42:53;9.18;;;5.78;;
80272;SDS011;69574;45.328;9.598;2024-02-26T08:45:19;8.60;;;5.25;;
80272;SDS011;69574;45.328;9.598;2024-02-26T08:47:44;10.98;;;6.10;;
80272;SDS011;69574;45.328;9.598;2024-02-26T08:50:10;8.93;;;5.55;;
80272;SDS011;69574;45.328;9.598;2024-02-26T08:52:38;11.77;;;6.53;;
80272;SDS011;69574;45.328;9.598;2024-02-26T08:57:30;10.57;;;6.63;;
80272;SDS011;69574;45.328;9.598;2024-02-26T08:59:57;11.75;;;7.00;;
80272;SDS011;69574;45.328;9.598;2024-02-26T09:02:23;12.20;;;7.60;;
80272;SDS011;69574;45.328;9.598;2024-02-26T09:04:49;12.05;;;8.23;;
80272;SDS011;69574;45.328;9.598;2024-02-26T09:07:16;10.98;;;7.45;;
80272;SDS011;69574;45.328;9.598;2024-02-26T09:09:43;12.63;;;8.15;;
80272;SDS011;69574;45.328;9.598;2024-02-26T09:14:34;12.57;;;8.73;;
80272;SDS011;69574;45.328;9.598;2024-02-26T09:17:00;14.70;;;9.20;;
80272;SDS011;69574;45.328;9.598;2024-02-26T09:19:25;12.55;;;9.07;;
80272;SDS011;69574;45.328;9.598;2024-02-26T09:21:52;13.27;;;9.45;;
80272;SDS011;69574;45.328;9.598;2024-02-26T09:24:22;13.85;;;9.20;;
80272;SDS011;69574;45.328;9.598;2024-02-26T09:26:49;13.93;;;9.63;;
80272;SDS011;69574;45.328;9.598;2024-02-26T09:31:40;15.30;;;10.30;;
80272;SDS011;69574;45.328;9.598;2024-02-26T09:34:07;17.33;;;11.23;;
80272;SDS011;69574;45.328;9.598;2024-02-26T09:36:33;16.50;;;11.10;;
80272;SDS011;69574;45.328;9.598;2024-02-26T09:38:58;16.92;;;10.70;;
80272;SDS011;69574;45.328;9.598;2024-02-26T09:41:24;17.40;;;11.02;;
80272;SDS011;69574;45.328;9.598;2024-02-26T09:43:54;17.65;;;10.75;;
80272;SDS011;69574;45.328;9.598;2024-02-26T09:46:21;19.00;;;11.82;;
80272;SDS011;69574;45.328;9.598;2024-02-26T09:48:46;16.80;;;10.57;;
80272;SDS011;69574;45.328;9.598;2024-02-26T09:51:12;16.95;;;10.23;;
80272;SDS011;69574;45.328;9.598;2024-02-26T09:53:39;17.92;;;11.15;;
80272;SDS011;69574;45.328;9.598;2024-02-26T09:56:08;15.55;;;9.68;;
80272;SDS011;69574;45.328;9.598;2024-02-26T09:58:33;15.77;;;10.07;;
80272;SDS011;69574;45.328;9.598;2024-02-26T10:01:02;15.27;;;10.15;;
80272;SDS011;69574;45.328;9.598;2024-02-26T10:03:31;17.15;;;9.93;;
80272;SDS011;69574;45.328;9.598;2024-02-26T10:05:59;16.50;;;9.95;;
80272;SDS011;69574;45.328;9.598;2024-02-26T10:08:27;16.05;;;10.80;;
80272;SDS011;69574;45.328;9.598;2024-02-26T10:10:54;14.55;;;9.50;;
80272;SDS011;69574;45.328;9.598;2024-02-26T10:13:19;18.08;;;10.60;;
80272;SDS011;69574;45.328;9.598;2024-02-26T10:15:45;16.67;;;9.70;;
80272;SDS011;69574;45.328;9.598;2024-02-26T10:18:12;15.88;;;9.57;;
80272;SDS011;69574;45.328;9.598;2024-02-26T10:23:03;13.30;;;8.73;;
80272;SDS011;69574;45.328;9.598;2024-02-26T10:25:30;17.10;;;9.60;;
80272;SDS011;69574;45.328;9.598;2024-02-26T10:27:57;13.07;;;8.93;;
80272;SDS011;69574;45.328;9.598;2024-02-26T10:30:24;15.07;;;9.75;;
80272;SDS011;69574;45.328;9.598;2024-02-26T10:32:51;12.25;;;8.85;;
80272;SDS011;69574;45.328;9.598;2024-02-26T10:35:19;15.15;;;9.82;;
80272;SDS011;69574;45.328;9.598;2024-02-26T10:37:47;14.10;;;8.95;;
80272;SDS011;69574;45.328;9.598;2024-02-26T10:40:13;14.98;;;8.88;;
80272;SDS011;69574;45.328;9.598;2024-02-26T10:42:39;15.38;;;9.55;;
80272;SDS011;69574;45.328;9.598;2024-02-26T10:45:05;13.65;;;8.73;;
80272;SDS011;69574;45.328;9.598;2024-02-26T10:47:31;14.07;;;9.38;;
80272;SDS011;69574;45.328;9.598;2024-02-26T10:49:58;15.50;;;9.05;;
80272;SDS011;69574;45.328;9.598;2024-02-26T10:52:25;14.15;;;8.90;;
80272;SDS011;69574;45.328;9.598;2024-02-26T10:54:53;13.35;;;8.32;;
80272;SDS011;69574;45.328;9.598;2024-02-26T10:57:19;13.38;;;7.72;;
80272;SDS011;69574;45.328;9.598;2024-02-26T10:59:45;11.23;;;7.47;;
80272;SDS011;69574;45.328;9.598;2024-02-26T11:02:10;11.90;;;7.20;;
80272;SDS011;69574;45.328;9.598;2024-02-26T11:04:37;11.60;;;6.30;;
80272;SDS011;69574;45.328;9.598;2024-02-26T11:07:03;9.30;;;5.57;;
80272;SDS011;69574;45.328;9.598;2024-02-26T11:09:31;8.45;;;5.63;;
80272;SDS011;69574;45.328;9.598;2024-02-26T11:11:57;9.15;;;5.50;;
80272;SDS011;69574;45.328;9.598;2024-02-26T11:16:51;9.57;;;5.68;;
80272;SDS011;69574;45.328;9.598;2024-02-26T11:19:16;11.07;;;5.38;;
80272;SDS011;69574;45.328;9.598;2024-02-26T11:21:43;8.40;;;5.45;;
80272;SDS011;69574;45.328;9.598;2024-02-26T11:24:10;10.38;;;5.68;;
80272;SDS011;69574;45.328;9.598;2024-02-26T11:26:39;9.00;;;5.43;;
80272;SDS011;69574;45.328;9.598;2024-02-26T11:29:05;11.27;;;5.88;;
80272;SDS011;69574;45.328;9.598;2024-02-26T11:31:33;9.30;;;5.88;;
80272;SDS011;69574;45.328;9.598;2024-02-26T11:33:59;11.07;;;6.63;;
80272;SDS011;69574;45.328;9.598;2024-02-26T11:36:24;11.07;;;6.50;;
80272;SDS011;69574;45.328;9.598;2024-02-26T11:38:50;10.15;;;6.00;;
80272;SDS011;69574;45.328;9.598;2024-02-26T11:43:53;12.13;;;5.97;;
80272;SDS011;69574;45.328;9.598;2024-02-26T11:46:25;11.65;;;6.75;;
80272;SDS011;69574;45.328;9.598;2024-02-26T11:48:51;11.70;;;7.03;;
80272;SDS011;69574;45.328;9.598;2024-02-26T11:51:17;13.35;;;7.22;;
80272;SDS011;69574;45.328;9.598;2024-02-26T11:53:45;11.35;;;5.70;;
80272;SDS011;69574;45.328;9.598;2024-02-26T11:56:21;11.52;;;5.43;;
80272;SDS011;69574;45.328;9.598;2024-02-26T11:58:57;9.98;;;5.93;;
80272;SDS011;69574;45.328;9.598;2024-02-26T12:01:35;10.77;;;6.43;;
80272;SDS011;69574;45.328;9.598;2024-02-26T12:04:01;11.15;;;5.68;;
80272;SDS011;69574;45.328;9.598;2024-02-26T12:06:27;10.95;;;6.00;;
80272;SDS011;69574;45.328;9.598;2024-02-26T12:08:53;13.13;;;5.40;;
80272;SDS011;69574;45.328;9.598;2024-02-26T12:11:19;8.27;;;5.38;;
80272;SDS011;69574;45.328;9.598;2024-02-26T12:13:47;8.38;;;4.70;;
80272;SDS011;69574;45.328;9.598;2024-02-26T12:16:21;8.10;;;4.53;;
80272;SDS011;69574;45.328;9.598;2024-02-26T12:18:59;6.47;;;3.85;;
80272;SDS011;69574;45.328;9.598;2024-02-26T12:21:25;6.90;;;3.80;;
80272;SDS011;69574;45.328;9.598;2024-02-26T12:23:51;5.72;;;3.00;;
80272;SDS011;69574;45.328;9.598;2024-02-26T12:26:16;5.60;;;3.30;;
80272;SDS011;69574;45.328;9.598;2024-02-26T12:28:42;6.47;;;3.08;;
80272;SDS011;69574;45.328;9.598;2024-02-26T12:31:08;6.28;;;3.38;;
80272;SDS011;69574;45.328;9.598;2024-02-26T12:33:35;7.40;;;3.22;;
80272;SDS011;69574;45.328;9.598;2024-02-26T12:36:01;6.15;;;2.80;;
80272;SDS011;69574;45.328;9.598;2024-02-26T12:38:26;5.72;;;2.30;;
80272;SDS011;69574;45.328;9.598;2024-02-26T12:40:52;4.93;;;2.33;;
80272;SDS011;69574;45.328;9.598;2024-02-26T12:43:18;4.68;;;2.20;;
80272;SDS011;69574;45.328;9.598;2024-02-26T12:45:43;4.18;;;2.10;;
80272;SDS011;69574;45.328;9.598;2024-02-26T12:48:11;4.60;;;1.70;;
80272;SDS011;69574;45.328;9.598;2024-02-26T12:50:39;4.93;;;2.03;;
80272;SDS011;69574;45.328;9.598;2024-02-26T12:53:04;3.50;;;1.80;;
80272;SDS011;69574;45.328;9.598;2024-02-26T12:55:30;3.67;;;1.70;;
80272;SDS011;69574;45.328;9.598;2024-02-26T12:57:59;3.78;;;1.70;;
80272;SDS011;69574;45.328;9.598;2024-02-26T13:00:26;4.63;;;1.77;;
80272;SDS011;69574;45.328;9.598;2024-02-26T13:02:53;4.50;;;1.58;;
80272;SDS011;69574;45.328;9.598;2024-02-26T13:05:20;3.13;;;1.40;;
80272;SDS011;69574;45.328;9.598;2024-02-26T13:07:48;3.15;;;1.70;;
80272;SDS011;69574;45.328;9.598;2024-02-26T13:10:13;4.68;;;1.58;;
80272;SDS011;69574;45.328;9.598;2024-02-26T13:12:42;3.40;;;1.52;;
80272;SDS011;69574;45.328;9.598;2024-02-26T13:15:08;6.75;;;1.80;;
80272;SDS011;69574;45.328;9.598;2024-02-26T13:17:39;4.93;;;1.80;;
80272;SDS011;69574;45.328;9.598;2024-02-26T13:20:05;3.45;;;1.30;;
80272;SDS011;69574;45.328;9.598;2024-02-26T13:22:31;3.85;;;1.63;;
80272;SDS011;69574;45.328;9.598;2024-02-26T13:25:00;3.42;;;1.48;;
80272;SDS011;69574;45.328;9.598;2024-02-26T13:27:28;3.03;;;1.40;;
80272;SDS011;69574;45.328;9.598;2024-02-26T13:30:04;3.47;;;1.30;;
80272;SDS011;69574;45.328;9.598;2024-02-26T13:32:33;2.35;;;1.20;;
80272;SDS011;69574;45.328;9.598;2024-02-26T13:35:08;2.78;;;1.40;;
80272;SDS011;69574;45.328;9.598;2024-02-26T13:37:34;3.03;;;1.40;;
80272;SDS011;69574;45.328;9.598;2024-02-26T13:40:01;5.72;;;1.80;;
80272;SDS011;69574;45.328;9.598;2024-02-26T13:42:29;4.80;;;1.55;;
80272;SDS011;69574;45.328;9.598;2024-02-26T13:44:55;4.03;;;1.58;;
80272;SDS011;69574;45.328;9.598;2024-02-26T13:47:20;3.40;;;1.85;;
80272;SDS011;69574;45.328;9.598;2024-02-26T13:49:46;3.85;;;1.58;;
